sensor_id;sensor_type;location;lat;lon;timestamp;temperature;humidity
23748;DHT22;12054;53.662;10.126;2022-09-03T00:02:13;17.80;76.50
23748;DHT22;12054;53.662;10.126;2022-09-03T00:04:50;17.70;76.50
23748;DHT22;12054;53.662;10.126;2022-09-03T00:07:29;17.70;76.60
23748;DHT22;12054;53.662;10.126;2022-09-03T00:09:59;17.60;76.80
23748;DHT22;12054;53.662;10.126;2022-09-03T00:12:29;17.60;76.90
23748;DHT22;12054;53.662;10.126;2022-09-03T00:17:36;17.60;77.10
23748;DHT22;12054;53.662;10.126;2022-09-03T00:20:09;17.60;77.10
23748;DHT22;12054;53.662;10.126;2022-09-03T00:22:43;17.60;77.30
23748;DHT22;12054;53.662;10.126;2022-09-03T00:25:16;17.60;77.30
23748;DHT22;12054;53.662;10.126;2022-09-03T00:27:44;17.50;77.30
23748;DHT22;12054;53.662;10.126;2022-09-03T00:30:15;17.50;77.40
23748;DHT22;12054;53.662;10.126;2022-09-03T00:32:42;17.50;77.50
23748;DHT22;12054;53.662;10.126;2022-09-03T00:35:39;17.50;77.60
23748;DHT22;12054;53.662;10.126;2022-09-03T00:38:07;17.50;77.70
23748;DHT22;12054;53.662;10.126;2022-09-03T00:43:49;17.50;77.80
23748;DHT22;12054;53.662;10.126;2022-09-03T00:46:38;17.40;77.90
23748;DHT22;12054;53.662;10.126;2022-09-03T00:58:14;17.30;78.20
23748;DHT22;12054;53.662;10.126;2022-09-03T01:00:41;17.30;78.30
23748;DHT22;12054;53.662;10.126;2022-09-03T01:03:13;17.20;78.20
23748;DHT22;12054;53.662;10.126;2022-09-03T01:11:47;17.20;78.50
23748;DHT22;12054;53.662;10.126;2022-09-03T01:16:59;17.10;78.60
23748;DHT22;12054;53.662;10.126;2022-09-03T01:25:14;17.10;78.80
23748;DHT22;12054;53.662;10.126;2022-09-03T01:30:39;17.10;79.00
23748;DHT22;12054;53.662;10.126;2022-09-03T01:33:27;17.00;78.90
23748;DHT22;12054;53.662;10.126;2022-09-03T01:39:00;17.00;79.20
23748;DHT22;12054;53.662;10.126;2022-09-03T01:42:11;17.00;79.30
23748;DHT22;12054;53.662;10.126;2022-09-03T01:45:42;17.00;79.40
23748;DHT22;12054;53.662;10.126;2022-09-03T01:52:58;16.90;79.40
23748;DHT22;12054;53.662;10.126;2022-09-03T01:55:39;16.90;79.50
23748;DHT22;12054;53.662;10.126;2022-09-03T01:58:19;16.90;79.50
23748;DHT22;12054;53.662;10.126;2022-09-03T02:00:49;16.90;79.60
23748;DHT22;12054;53.662;10.126;2022-09-03T02:03:16;16.90;79.60
23748;DHT22;12054;53.662;10.126;2022-09-03T02:05:42;16.80;79.70
23748;DHT22;12054;53.662;10.126;2022-09-03T02:08:09;16.80;79.70
23748;DHT22;12054;53.662;10.126;2022-09-03T02:11:03;16.80;79.80
23748;DHT22;12054;53.662;10.126;2022-09-03T02:13:41;16.80;80.00
23748;DHT22;12054;53.662;10.126;2022-09-03T02:16:17;16.70;79.90
23748;DHT22;12054;53.662;10.126;2022-09-03T02:18:49;16.70;79.90
23748;DHT22;12054;53.662;10.126;2022-09-03T02:21:17;16.70;80.00
23748;DHT22;12054;53.662;10.126;2022-09-03T02:23:44;16.70;80.00
23748;DHT22;12054;53.662;10.126;2022-09-03T02:26:12;16.70;80.10
23748;DHT22;12054;53.662;10.126;2022-09-03T02:28:40;16.70;80.10
23748;DHT22;12054;53.662;10.126;2022-09-03T02:31:06;16.70;80.10
23748;DHT22;12054;53.662;10.126;2022-09-03T02:33:38;16.70;80.20
23748;DHT22;12054;53.662;10.126;2022-09-03T02:36:06;16.70;80.20
23748;DHT22;12054;53.662;10.126;2022-09-03T02:38:32;16.60;80.30
23748;DHT22;12054;53.662;10.126;2022-09-03T02:40:58;16.50;80.30
23748;DHT22;12054;53.662;10.126;2022-09-03T02:46:09;16.50;80.50
23748;DHT22;12054;53.662;10.126;2022-09-03T02:48:36;16.50;80.60
23748;DHT22;12054;53.662;10.126;2022-09-03T02:51:03;16.40;80.60
23748;DHT22;12054;53.662;10.126;2022-09-03T02:53:29;16.40;81.40
23748;DHT22;12054;53.662;10.126;2022-09-03T02:55:59;16.40;80.70
23748;DHT22;12054;53.662;10.126;2022-09-03T02:58:25;16.40;80.70
23748;DHT22;12054;53.662;10.126;2022-09-03T03:00:51;16.30;80.70
23748;DHT22;12054;53.662;10.126;2022-09-03T03:03:17;16.40;80.90
23748;DHT22;12054;53.662;10.126;2022-09-03T03:05:46;16.40;80.90
23748;DHT22;12054;53.662;10.126;2022-09-03T03:08:13;16.30;80.90
23748;DHT22;12054;53.662;10.126;2022-09-03T03:10:48;16.30;80.90
23748;DHT22;12054;53.662;10.126;2022-09-03T03:13:16;16.30;81.00
23748;DHT22;12054;53.662;10.126;2022-09-03T03:15:42;16.30;81.10
23748;DHT22;12054;53.662;10.126;2022-09-03T03:18:08;16.30;81.10
23748;DHT22;12054;53.662;10.126;2022-09-03T03:20:37;16.30;81.20
23748;DHT22;12054;53.662;10.126;2022-09-03T03:23:03;16.20;81.10
23748;DHT22;12054;53.662;10.126;2022-09-03T03:25:31;16.20;81.20
23748;DHT22;12054;53.662;10.126;2022-09-03T03:27:57;16.20;81.20
23748;DHT22;12054;53.662;10.126;2022-09-03T03:30:23;16.20;81.30
23748;DHT22;12054;53.662;10.126;2022-09-03T03:32:48;16.20;82.00
23748;DHT22;12054;53.662;10.126;2022-09-03T03:35:14;16.20;81.30
23748;DHT22;12054;53.662;10.126;2022-09-03T03:37:40;16.20;81.30
23748;DHT22;12054;53.662;10.126;2022-09-03T03:40:06;16.20;81.30
23748;DHT22;12054;53.662;10.126;2022-09-03T03:42:33;16.20;81.30
23748;DHT22;12054;53.662;10.126;2022-09-03T03:44:59;16.10;81.30
23748;DHT22;12054;53.662;10.126;2022-09-03T03:47:25;16.10;81.40
23748;DHT22;12054;53.662;10.126;2022-09-03T03:49:51;16.10;81.40
23748;DHT22;12054;53.662;10.126;2022-09-03T03:52:16;16.10;81.50
23748;DHT22;12054;53.662;10.126;2022-09-03T03:54:42;16.00;81.50
23748;DHT22;12054;53.662;10.126;2022-09-03T03:57:07;16.10;81.60
23748;DHT22;12054;53.662;10.126;2022-09-03T03:59:33;16.10;81.50
23748;DHT22;12054;53.662;10.126;2022-09-03T04:01:58;16.00;81.50
23748;DHT22;12054;53.662;10.126;2022-09-03T04:04:24;16.00;81.50
23748;DHT22;12054;53.662;10.126;2022-09-03T04:06:49;16.00;81.60
23748;DHT22;12054;53.662;10.126;2022-09-03T04:09:15;16.00;81.60
23748;DHT22;12054;53.662;10.126;2022-09-03T04:11:40;16.00;81.60
23748;DHT22;12054;53.662;10.126;2022-09-03T04:14:06;16.00;81.60
23748;DHT22;12054;53.662;10.126;2022-09-03T04:16:31;16.00;81.60
23748;DHT22;12054;53.662;10.126;2022-09-03T04:18:57;15.90;81.50
23748;DHT22;12054;53.662;10.126;2022-09-03T04:21:25;15.90;81.60
23748;DHT22;12054;53.662;10.126;2022-09-03T04:23:52;15.90;81.60
23748;DHT22;12054;53.662;10.126;2022-09-03T04:26:23;15.90;81.70
23748;DHT22;12054;53.662;10.126;2022-09-03T04:28:49;15.80;81.60
23748;DHT22;12054;53.662;10.126;2022-09-03T04:31:16;15.80;81.70
23748;DHT22;12054;53.662;10.126;2022-09-03T04:33:42;15.80;81.70
23748;DHT22;12054;53.662;10.126;2022-09-03T04:36:13;15.80;81.80
23748;DHT22;12054;53.662;10.126;2022-09-03T04:38:42;15.80;81.80
23748;DHT22;12054;53.662;10.126;2022-09-03T04:41:10;15.70;81.80
23748;DHT22;12054;53.662;10.126;2022-09-03T04:43:36;15.70;81.80
23748;DHT22;12054;53.662;10.126;2022-09-03T04:46:04;15.70;81.80
23748;DHT22;12054;53.662;10.126;2022-09-03T04:48:31;15.70;81.80
23748;DHT22;12054;53.662;10.126;2022-09-03T04:53:35;15.70;81.80
23748;DHT22;12054;53.662;10.126;2022-09-03T04:56:01;15.70;81.90
23748;DHT22;12054;53.662;10.126;2022-09-03T04:58:27;15.70;81.80
23748;DHT22;12054;53.662;10.126;2022-09-03T05:00:52;15.60;81.80
23748;DHT22;12054;53.662;10.126;2022-09-03T05:03:18;15.60;81.80
23748;DHT22;12054;53.662;10.126;2022-09-03T05:05:55;15.60;81.80
23748;DHT22;12054;53.662;10.126;2022-09-03T05:08:21;15.60;81.80
23748;DHT22;12054;53.662;10.126;2022-09-03T05:10:47;15.60;81.90
23748;DHT22;12054;53.662;10.126;2022-09-03T05:13:13;15.60;82.00
23748;DHT22;12054;53.662;10.126;2022-09-03T05:15:38;15.60;82.10
23748;DHT22;12054;53.662;10.126;2022-09-03T05:18:04;15.60;82.10
23748;DHT22;12054;53.662;10.126;2022-09-03T05:20:30;15.50;82.10
23748;DHT22;12054;53.662;10.126;2022-09-03T05:23:00;15.50;82.10
23748;DHT22;12054;53.662;10.126;2022-09-03T05:25:27;15.50;82.10
23748;DHT22;12054;53.662;10.126;2022-09-03T05:27:52;15.50;82.20
23748;DHT22;12054;53.662;10.126;2022-09-03T05:30:18;15.50;82.30
23748;DHT22;12054;53.662;10.126;2022-09-03T05:32:47;15.50;82.30
23748;DHT22;12054;53.662;10.126;2022-09-03T05:35:12;15.50;82.30
23748;DHT22;12054;53.662;10.126;2022-09-03T05:37:38;15.50;82.30
23748;DHT22;12054;53.662;10.126;2022-09-03T05:40:04;15.50;82.40
23748;DHT22;12054;53.662;10.126;2022-09-03T05:42:30;15.50;82.50
23748;DHT22;12054;53.662;10.126;2022-09-03T05:44:56;15.50;82.40
23748;DHT22;12054;53.662;10.126;2022-09-03T05:47:22;15.50;82.50
23748;DHT22;12054;53.662;10.126;2022-09-03T05:49:48;15.50;83.30
23748;DHT22;12054;53.662;10.126;2022-09-03T05:52:14;15.50;82.50
23748;DHT22;12054;53.662;10.126;2022-09-03T05:54:40;15.50;82.60
23748;DHT22;12054;53.662;10.126;2022-09-03T05:57:05;15.50;82.70
23748;DHT22;12054;53.662;10.126;2022-09-03T05:59:31;15.50;82.70
23748;DHT22;12054;53.662;10.126;2022-09-03T06:01:56;15.50;82.70
23748;DHT22;12054;53.662;10.126;2022-09-03T06:04:22;15.50;82.90
23748;DHT22;12054;53.662;10.126;2022-09-03T06:06:48;15.50;83.00
23748;DHT22;12054;53.662;10.126;2022-09-03T06:09:19;15.50;83.10
23748;DHT22;12054;53.662;10.126;2022-09-03T06:11:45;15.50;83.10
23748;DHT22;12054;53.662;10.126;2022-09-03T06:14:12;15.50;83.10
23748;DHT22;12054;53.662;10.126;2022-09-03T06:16:42;15.50;83.20
23748;DHT22;12054;53.662;10.126;2022-09-03T06:19:09;15.50;83.30
23748;DHT22;12054;53.662;10.126;2022-09-03T06:21:36;15.50;83.30
23748;DHT22;12054;53.662;10.126;2022-09-03T06:24:04;15.60;83.30
23748;DHT22;12054;53.662;10.126;2022-09-03T06:26:30;15.50;83.30
23748;DHT22;12054;53.662;10.126;2022-09-03T06:28:56;15.60;83.50
23748;DHT22;12054;53.662;10.126;2022-09-03T06:31:22;15.60;83.50
23748;DHT22;12054;53.662;10.126;2022-09-03T06:33:48;15.60;83.50
23748;DHT22;12054;53.662;10.126;2022-09-03T06:36:16;15.60;83.50
23748;DHT22;12054;53.662;10.126;2022-09-03T06:38:42;15.60;83.50
23748;DHT22;12054;53.662;10.126;2022-09-03T06:41:11;15.60;83.60
23748;DHT22;12054;53.662;10.126;2022-09-03T06:43:38;15.60;83.60
23748;DHT22;12054;53.662;10.126;2022-09-03T06:46:09;15.60;83.80
23748;DHT22;12054;53.662;10.126;2022-09-03T06:48:36;15.70;83.90
23748;DHT22;12054;53.662;10.126;2022-09-03T06:51:05;15.70;83.90
23748;DHT22;12054;53.662;10.126;2022-09-03T06:53:35;15.70;83.90
23748;DHT22;12054;53.662;10.126;2022-09-03T06:56:03;15.70;83.90
23748;DHT22;12054;53.662;10.126;2022-09-03T06:58:35;15.80;84.00
23748;DHT22;12054;53.662;10.126;2022-09-03T07:01:12;15.80;84.10
23748;DHT22;12054;53.662;10.126;2022-09-03T07:03:40;15.80;84.20
23748;DHT22;12054;53.662;10.126;2022-09-03T07:06:17;15.90;84.10
23748;DHT22;12054;53.662;10.126;2022-09-03T07:08:44;16.00;84.20
23748;DHT22;12054;53.662;10.126;2022-09-03T07:11:13;16.00;84.20
23748;DHT22;12054;53.662;10.126;2022-09-03T07:13:44;16.20;84.20
23748;DHT22;12054;53.662;10.126;2022-09-03T07:16:15;16.30;84.10
23748;DHT22;12054;53.662;10.126;2022-09-03T07:18:42;16.50;83.60
23748;DHT22;12054;53.662;10.126;2022-09-03T07:21:19;16.70;83.30
23748;DHT22;12054;53.662;10.126;2022-09-03T07:23:46;16.80;82.80
23748;DHT22;12054;53.662;10.126;2022-09-03T07:26:17;17.00;82.70
23748;DHT22;12054;53.662;10.126;2022-09-03T07:28:47;17.20;82.50
23748;DHT22;12054;53.662;10.126;2022-09-03T07:31:21;17.40;81.90
23748;DHT22;12054;53.662;10.126;2022-09-03T07:34:11;17.60;81.60
23748;DHT22;12054;53.662;10.126;2022-09-03T07:36:42;17.80;81.50
23748;DHT22;12054;53.662;10.126;2022-09-03T07:39:08;18.10;81.00
23748;DHT22;12054;53.662;10.126;2022-09-03T07:41:35;18.30;80.50
23748;DHT22;12054;53.662;10.126;2022-09-03T07:44:02;18.50;79.80
23748;DHT22;12054;53.662;10.126;2022-09-03T07:46:31;18.70;79.30
23748;DHT22;12054;53.662;10.126;2022-09-03T07:48:59;18.90;78.50
23748;DHT22;12054;53.662;10.126;2022-09-03T07:51:30;19.00;78.00
23748;DHT22;12054;53.662;10.126;2022-09-03T07:53:58;19.10;77.30
23748;DHT22;12054;53.662;10.126;2022-09-03T07:56:25;19.30;77.00
23748;DHT22;12054;53.662;10.126;2022-09-03T07:58:52;19.40;76.70
23748;DHT22;12054;53.662;10.126;2022-09-03T08:01:20;19.50;76.00
23748;DHT22;12054;53.662;10.126;2022-09-03T08:03:48;19.70;75.50
23748;DHT22;12054;53.662;10.126;2022-09-03T08:06:17;19.80;75.40
23748;DHT22;12054;53.662;10.126;2022-09-03T08:08:43;19.90;75.10
23748;DHT22;12054;53.662;10.126;2022-09-03T08:11:16;20.10;74.70
23748;DHT22;12054;53.662;10.126;2022-09-03T08:13:44;20.20;74.30
23748;DHT22;12054;53.662;10.126;2022-09-03T08:16:12;20.40;73.80
23748;DHT22;12054;53.662;10.126;2022-09-03T08:18:38;20.40;73.20
23748;DHT22;12054;53.662;10.126;2022-09-03T08:21:09;20.50;72.90
23748;DHT22;12054;53.662;10.126;2022-09-03T08:23:39;20.70;72.80
23748;DHT22;12054;53.662;10.126;2022-09-03T08:26:06;20.80;72.60
23748;DHT22;12054;53.662;10.126;2022-09-03T08:28:32;21.00;72.20
23748;DHT22;12054;53.662;10.126;2022-09-03T08:31:04;21.20;71.50
23748;DHT22;12054;53.662;10.126;2022-09-03T08:33:29;21.30;70.90
23748;DHT22;12054;53.662;10.126;2022-09-03T08:36:34;21.30;70.60
23748;DHT22;12054;53.662;10.126;2022-09-03T08:39:02;21.40;70.20
23748;DHT22;12054;53.662;10.126;2022-09-03T08:42:01;21.50;69.90
23748;DHT22;12054;53.662;10.126;2022-09-03T08:44:48;21.50;69.20
23748;DHT22;12054;53.662;10.126;2022-09-03T08:47:25;21.60;69.10
23748;DHT22;12054;53.662;10.126;2022-09-03T08:50:12;21.80;68.80
23748;DHT22;12054;53.662;10.126;2022-09-03T08:55:26;21.90;67.70
23748;DHT22;12054;53.662;10.126;2022-09-03T08:58:25;22.00;67.20
23748;DHT22;12054;53.662;10.126;2022-09-03T09:04:18;22.20;66.90
23748;DHT22;12054;53.662;10.126;2022-09-03T09:07:02;22.30;66.50
23748;DHT22;12054;53.662;10.126;2022-09-03T09:09:42;22.30;66.40
23748;DHT22;12054;53.662;10.126;2022-09-03T09:12:37;22.50;66.10
23748;DHT22;12054;53.662;10.126;2022-09-03T09:23:46;23.10;65.00
23748;DHT22;12054;53.662;10.126;2022-09-03T09:26:19;23.20;64.60
23748;DHT22;12054;53.662;10.126;2022-09-03T09:28:50;23.10;63.90
23748;DHT22;12054;53.662;10.126;2022-09-03T09:31:16;23.10;63.90
23748;DHT22;12054;53.662;10.126;2022-09-03T09:33:43;23.10;63.90
23748;DHT22;12054;53.662;10.126;2022-09-03T09:36:14;23.10;63.90
23748;DHT22;12054;53.662;10.126;2022-09-03T09:38:42;23.00;63.70
23748;DHT22;12054;53.662;10.126;2022-09-03T09:41:16;23.00;63.50
23748;DHT22;12054;53.662;10.126;2022-09-03T09:43:44;23.00;63.50
23748;DHT22;12054;53.662;10.126;2022-09-03T09:46:14;22.90;63.60
23748;DHT22;12054;53.662;10.126;2022-09-03T09:48:49;22.90;63.50
23748;DHT22;12054;53.662;10.126;2022-09-03T09:51:27;22.90;63.30
23748;DHT22;12054;53.662;10.126;2022-09-03T09:56:29;22.90;63.10
23748;DHT22;12054;53.662;10.126;2022-09-03T09:59:05;23.00;63.00
23748;DHT22;12054;53.662;10.126;2022-09-03T10:01:31;23.10;62.70
23748;DHT22;12054;53.662;10.126;2022-09-03T10:03:59;23.20;62.30
23748;DHT22;12054;53.662;10.126;2022-09-03T10:06:32;23.30;61.70
23748;DHT22;12054;53.662;10.126;2022-09-03T10:09:25;23.30;61.10
23748;DHT22;12054;53.662;10.126;2022-09-03T10:17:59;23.20;58.30
23748;DHT22;12054;53.662;10.126;2022-09-03T10:20:40;23.20;58.10
23748;DHT22;12054;53.662;10.126;2022-09-03T10:23:22;23.20;58.20
23748;DHT22;12054;53.662;10.126;2022-09-03T10:26:03;23.30;58.30
23748;DHT22;12054;53.662;10.126;2022-09-03T10:28:34;23.40;58.30
23748;DHT22;12054;53.662;10.126;2022-09-03T10:33:59;23.50;57.70
23748;DHT22;12054;53.662;10.126;2022-09-03T10:36:35;23.50;57.50
23748;DHT22;12054;53.662;10.126;2022-09-03T10:39:05;23.60;57.40
23748;DHT22;12054;53.662;10.126;2022-09-03T10:41:59;23.60;57.30
23748;DHT22;12054;53.662;10.126;2022-09-03T10:44:49;23.60;56.90
23748;DHT22;12054;53.662;10.126;2022-09-03T10:50:26;23.80;56.00
23748;DHT22;12054;53.662;10.126;2022-09-03T11:02:16;23.80;55.20
23748;DHT22;12054;53.662;10.126;2022-09-03T11:07:37;23.80;55.20
23748;DHT22;12054;53.662;10.126;2022-09-03T11:10:31;23.90;55.30
23748;DHT22;12054;53.662;10.126;2022-09-03T11:15:43;24.00;54.70
23748;DHT22;12054;53.662;10.126;2022-09-03T11:18:40;24.00;54.80
23748;DHT22;12054;53.662;10.126;2022-09-03T11:21:11;24.00;55.00
23748;DHT22;12054;53.662;10.126;2022-09-03T11:23:41;24.10;55.10
23748;DHT22;12054;53.662;10.126;2022-09-03T11:26:10;24.00;55.00
23748;DHT22;12054;53.662;10.126;2022-09-03T11:28:57;24.00;54.80
23748;DHT22;12054;53.662;10.126;2022-09-03T11:32:14;24.00;54.80
23748;DHT22;12054;53.662;10.126;2022-09-03T11:34:31;24.00;55.00
23748;DHT22;12054;53.662;10.126;2022-09-03T11:37:05;24.00;55.00
23748;DHT22;12054;53.662;10.126;2022-09-03T11:41:58;23.90;54.10
23748;DHT22;12054;53.662;10.126;2022-09-03T11:44:35;23.90;53.90
23748;DHT22;12054;53.662;10.126;2022-09-03T11:47:21;23.90;53.70
23748;DHT22;12054;53.662;10.126;2022-09-03T11:49:50;24.00;53.50
23748;DHT22;12054;53.662;10.126;2022-09-03T11:52:27;24.10;53.70
23748;DHT22;12054;53.662;10.126;2022-09-03T11:54:54;24.20;54.00
23748;DHT22;12054;53.662;10.126;2022-09-03T11:57:29;24.30;54.10
23748;DHT22;12054;53.662;10.126;2022-09-03T12:00:08;24.50;54.20
23748;DHT22;12054;53.662;10.126;2022-09-03T12:02:36;24.60;54.00
23748;DHT22;12054;53.662;10.126;2022-09-03T12:05:13;24.70;53.60
23748;DHT22;12054;53.662;10.126;2022-09-03T12:07:59;24.70;53.40
23748;DHT22;12054;53.662;10.126;2022-09-03T12:13:33;24.70;52.40
23748;DHT22;12054;53.662;10.126;2022-09-03T12:18:39;24.80;51.80
23748;DHT22;12054;53.662;10.126;2022-09-03T12:21:07;24.70;51.40
23748;DHT22;12054;53.662;10.126;2022-09-03T12:23:54;24.70;51.00
23748;DHT22;12054;53.662;10.126;2022-09-03T12:26:22;24.70;50.80
23748;DHT22;12054;53.662;10.126;2022-09-03T12:28:58;24.70;50.40
23748;DHT22;12054;53.662;10.126;2022-09-03T12:31:30;24.60;50.30
23748;DHT22;12054;53.662;10.126;2022-09-03T12:34:02;24.60;50.70
23748;DHT22;12054;53.662;10.126;2022-09-03T12:36:49;24.60;50.80
23748;DHT22;12054;53.662;10.126;2022-09-03T12:39:24;24.50;50.60
23748;DHT22;12054;53.662;10.126;2022-09-03T12:42:04;24.50;50.50
23748;DHT22;12054;53.662;10.126;2022-09-03T12:44:37;24.50;51.10
23748;DHT22;12054;53.662;10.126;2022-09-03T12:47:05;24.50;50.60
23748;DHT22;12054;53.662;10.126;2022-09-03T12:49:42;24.60;50.60
23748;DHT22;12054;53.662;10.126;2022-09-03T12:52:17;24.60;50.50
23748;DHT22;12054;53.662;10.126;2022-09-03T12:57:42;24.70;50.30
23748;DHT22;12054;53.662;10.126;2022-09-03T13:00:12;24.80;50.00
23748;DHT22;12054;53.662;10.126;2022-09-03T13:02:44;24.80;49.60
23748;DHT22;12054;53.662;10.126;2022-09-03T13:05:16;24.80;49.60
23748;DHT22;12054;53.662;10.126;2022-09-03T13:07:46;24.80;49.60
23748;DHT22;12054;53.662;10.126;2022-09-03T13:10:27;24.90;49.60
23748;DHT22;12054;53.662;10.126;2022-09-03T13:13:02;24.90;49.40
23748;DHT22;12054;53.662;10.126;2022-09-03T13:15:31;25.00;49.50
23748;DHT22;12054;53.662;10.126;2022-09-03T13:18:24;24.90;49.30
23748;DHT22;12054;53.662;10.126;2022-09-03T13:31:54;24.80;49.20
23748;DHT22;12054;53.662;10.126;2022-09-03T13:34:39;24.70;49.30
23748;DHT22;12054;53.662;10.126;2022-09-03T13:39:51;24.70;49.50
23748;DHT22;12054;53.662;10.126;2022-09-03T13:42:39;24.60;49.50
23748;DHT22;12054;53.662;10.126;2022-09-03T13:48:10;24.50;49.10
23748;DHT22;12054;53.662;10.126;2022-09-03T13:51:26;24.40;49.20
23748;DHT22;12054;53.662;10.126;2022-09-03T13:54:25;24.40;49.30
23748;DHT22;12054;53.662;10.126;2022-09-03T13:57:08;24.40;49.40
23748;DHT22;12054;53.662;10.126;2022-09-03T14:00:02;24.40;49.40
23748;DHT22;12054;53.662;10.126;2022-09-03T14:02:51;24.40;49.50
23748;DHT22;12054;53.662;10.126;2022-09-03T14:05:30;24.30;49.60
23748;DHT22;12054;53.662;10.126;2022-09-03T14:08:20;24.40;49.80
23748;DHT22;12054;53.662;10.126;2022-09-03T14:11:26;24.40;49.50
23748;DHT22;12054;53.662;10.126;2022-09-03T14:16:43;24.30;49.60
23748;DHT22;12054;53.662;10.126;2022-09-03T14:19:36;24.30;49.30
23748;DHT22;12054;53.662;10.126;2022-09-03T14:22:15;24.20;49.00
23748;DHT22;12054;53.662;10.126;2022-09-03T14:25:04;24.20;49.20
23748;DHT22;12054;53.662;10.126;2022-09-03T14:27:33;24.30;49.30
23748;DHT22;12054;53.662;10.126;2022-09-03T14:30:05;24.30;49.20
23748;DHT22;12054;53.662;10.126;2022-09-03T14:41:42;24.30;49.10
23748;DHT22;12054;53.662;10.126;2022-09-03T14:47:29;24.30;49.00
23748;DHT22;12054;53.662;10.126;2022-09-03T14:55:41;24.30;49.00
23748;DHT22;12054;53.662;10.126;2022-09-03T15:01:37;24.10;48.90
23748;DHT22;12054;53.662;10.126;2022-09-03T15:10:02;23.80;49.30
23748;DHT22;12054;53.662;10.126;2022-09-03T15:13:36;23.80;49.50
23748;DHT22;12054;53.662;10.126;2022-09-03T15:15:58;23.80;49.60
23748;DHT22;12054;53.662;10.126;2022-09-03T15:23:50;23.70;49.50
23748;DHT22;12054;53.662;10.126;2022-09-03T15:26:35;23.70;49.70
23748;DHT22;12054;53.662;10.126;2022-09-03T15:35:02;23.60;50.00
23748;DHT22;12054;53.662;10.126;2022-09-03T15:37:38;23.70;50.70
23748;DHT22;12054;53.662;10.126;2022-09-03T15:40:32;23.70;50.00
23748;DHT22;12054;53.662;10.126;2022-09-03T15:43:17;23.70;50.00
23748;DHT22;12054;53.662;10.126;2022-09-03T15:48:29;23.60;50.20
23748;DHT22;12054;53.662;10.126;2022-09-03T15:51:17;23.50;50.10
23748;DHT22;12054;53.662;10.126;2022-09-03T15:57:06;23.50;50.00
23748;DHT22;12054;53.662;10.126;2022-09-03T15:59:41;23.50;50.00
23748;DHT22;12054;53.662;10.126;2022-09-03T16:05:20;23.40;50.20
23748;DHT22;12054;53.662;10.126;2022-09-03T16:13:59;23.30;50.80
23748;DHT22;12054;53.662;10.126;2022-09-03T16:25:03;23.00;51.20
23748;DHT22;12054;53.662;10.126;2022-09-03T16:27:45;22.90;51.40
23748;DHT22;12054;53.662;10.126;2022-09-03T16:30:36;22.90;51.50
23748;DHT22;12054;53.662;10.126;2022-09-03T16:36:01;22.80;51.60
23748;DHT22;12054;53.662;10.126;2022-09-03T16:38:47;22.80;51.60
23748;DHT22;12054;53.662;10.126;2022-09-03T16:41:40;22.70;51.40
23748;DHT22;12054;53.662;10.126;2022-09-03T16:52:47;22.60;52.10
23748;DHT22;12054;53.662;10.126;2022-09-03T16:56:02;22.60;52.30
23748;DHT22;12054;53.662;10.126;2022-09-03T16:58:56;22.60;52.80
23748;DHT22;12054;53.662;10.126;2022-09-03T17:07:28;22.40;53.30
23748;DHT22;12054;53.662;10.126;2022-09-03T17:10:23;22.40;53.30
23748;DHT22;12054;53.662;10.126;2022-09-03T17:15:44;22.30;53.50
23748;DHT22;12054;53.662;10.126;2022-09-03T17:18:24;22.20;53.50
23748;DHT22;12054;53.662;10.126;2022-09-03T17:21:58;22.20;53.60
23748;DHT22;12054;53.662;10.126;2022-09-03T17:30:26;22.10;53.80
23748;DHT22;12054;53.662;10.126;2022-09-03T17:33:02;22.10;53.90
23748;DHT22;12054;53.662;10.126;2022-09-03T17:41:33;22.00;54.10
23748;DHT22;12054;53.662;10.126;2022-09-03T17:44:19;21.90;54.20
23748;DHT22;12054;53.662;10.126;2022-09-03T17:49:53;21.90;54.60
23748;DHT22;12054;53.662;10.126;2022-09-03T17:52:37;21.90;54.60
23748;DHT22;12054;53.662;10.126;2022-09-03T17:55:28;21.90;54.70
23748;DHT22;12054;53.662;10.126;2022-09-03T17:58:13;21.90;54.90
23748;DHT22;12054;53.662;10.126;2022-09-03T18:03:54;21.80;55.00
23748;DHT22;12054;53.662;10.126;2022-09-03T18:09:31;21.80;55.30
23748;DHT22;12054;53.662;10.126;2022-09-03T18:14:36;21.80;55.50
23748;DHT22;12054;53.662;10.126;2022-09-03T18:17:15;21.70;55.60
23748;DHT22;12054;53.662;10.126;2022-09-03T18:19:53;21.70;55.80
23748;DHT22;12054;53.662;10.126;2022-09-03T18:23:04;21.70;55.90
23748;DHT22;12054;53.662;10.126;2022-09-03T18:25:56;21.60;56.10
23748;DHT22;12054;53.662;10.126;2022-09-03T18:28:47;21.60;56.10
23748;DHT22;12054;53.662;10.126;2022-09-03T18:31:34;21.50;56.20
23748;DHT22;12054;53.662;10.126;2022-09-03T18:34:20;21.50;56.30
23748;DHT22;12054;53.662;10.126;2022-09-03T18:37:08;21.40;56.50
23748;DHT22;12054;53.662;10.126;2022-09-03T18:39:52;21.40;56.60
23748;DHT22;12054;53.662;10.126;2022-09-03T18:42:41;21.40;56.70
23748;DHT22;12054;53.662;10.126;2022-09-03T18:45:37;21.30;56.90
23748;DHT22;12054;53.662;10.126;2022-09-03T18:48:53;21.30;57.00
23748;DHT22;12054;53.662;10.126;2022-09-03T18:52:17;21.20;57.20
23748;DHT22;12054;53.662;10.126;2022-09-03T18:55:32;21.10;57.30
23748;DHT22;12054;53.662;10.126;2022-09-03T18:58:33;21.20;57.40
23748;DHT22;12054;53.662;10.126;2022-09-03T19:01:37;21.10;57.40
23748;DHT22;12054;53.662;10.126;2022-09-03T19:04:48;21.00;57.60
23748;DHT22;12054;53.662;10.126;2022-09-03T19:07:52;20.90;57.60
23748;DHT22;12054;53.662;10.126;2022-09-03T19:10:52;20.90;57.80
23748;DHT22;12054;53.662;10.126;2022-09-03T19:13:40;20.90;57.90
23748;DHT22;12054;53.662;10.126;2022-09-03T19:19:55;20.70;58.10
23748;DHT22;12054;53.662;10.126;2022-09-03T19:22:43;20.70;58.20
23748;DHT22;12054;53.662;10.126;2022-09-03T19:25:28;20.60;58.30
23748;DHT22;12054;53.662;10.126;2022-09-03T19:31:24;20.60;58.60
23748;DHT22;12054;53.662;10.126;2022-09-03T19:37:19;20.40;58.80
23748;DHT22;12054;53.662;10.126;2022-09-03T19:43:58;20.30;59.10
23748;DHT22;12054;53.662;10.126;2022-09-03T19:46:51;20.30;59.30
23748;DHT22;12054;53.662;10.126;2022-09-03T19:49:59;20.20;59.30
23748;DHT22;12054;53.662;10.126;2022-09-03T19:53:02;20.20;59.50
23748;DHT22;12054;53.662;10.126;2022-09-03T19:56:10;20.10;59.60
23748;DHT22;12054;53.662;10.126;2022-09-03T19:59:05;20.10;59.80
23748;DHT22;12054;53.662;10.126;2022-09-03T20:01:49;20.00;59.80
23748;DHT22;12054;53.662;10.126;2022-09-03T20:04:58;19.90;60.00
23748;DHT22;12054;53.662;10.126;2022-09-03T20:07:44;19.90;60.20